sensor_id;sensor_type;location;lat;lon;timestamp;pressure;altitude;pressure_sealevel;temperature;humidity
62632;BME280;48703;51.248;-0.546;2023-02-10T00:00:43;103023;;;2.00;86.98
62632;BME280;48703;51.248;-0.546;2023-02-10T00:03:45;103023;;;1.98;87.39
62632;BME280;48703;51.248;-0.546;2023-02-10T00:06:46;103027;;;1.96;87.52
62632;BME280;48703;51.248;-0.546;2023-02-10T00:09:48;103031;;;1.94;87.20
62632;BME280;48703;51.248;-0.546;2023-02-10T00:12:50;103031;;;1.92;87.05
62632;BME280;48703;51.248;-0.546;2023-02-10T00:15:53;103034;;;1.89;87.34
62632;BME280;48703;51.248;-0.546;2023-02-10T00:18:54;103036;;;1.89;87.56
62632;BME280;48703;51.248;-0.546;2023-02-10T00:21:56;103035;;;1.87;87.41
62632;BME280;48703;51.248;-0.546;2023-02-10T00:24:58;103034;;;1.84;87.74
62632;BME280;48703;51.248;-0.546;2023-02-10T00:28:00;103034;;;1.84;87.69
62632;BME280;48703;51.248;-0.546;2023-02-10T00:31:04;103030;;;1.80;88.17
62632;BME280;48703;51.248;-0.546;2023-02-10T00:34:04;103033;;;1.74;87.88
62632;BME280;48703;51.248;-0.546;2023-02-10T00:37:06;103033;;;1.74;87.62
62632;BME280;48703;51.248;-0.546;2023-02-10T00:40:08;103029;;;1.71;87.79
62632;BME280;48703;51.248;-0.546;2023-02-10T00:43:10;103029;;;1.66;87.92
62632;BME280;48703;51.248;-0.546;2023-02-10T00:46:12;103028;;;1.59;87.86
62632;BME280;48703;51.248;-0.546;2023-02-10T00:49:13;103029;;;1.57;87.63
62632;BME280;48703;51.248;-0.546;2023-02-10T00:52:15;103030;;;1.51;87.43
62632;BME280;48703;51.248;-0.546;2023-02-10T00:55:17;103030;;;1.41;88.25
62632;BME280;48703;51.248;-0.546;2023-02-10T00:58:19;103027;;;1.35;87.93
62632;BME280;48703;51.248;-0.546;2023-02-10T01:01:21;103028;;;1.34;87.83
62632;BME280;48703;51.248;-0.546;2023-02-10T01:04:23;103024;;;1.29;87.96
62632;BME280;48703;51.248;-0.546;2023-02-10T01:07:25;103023;;;1.20;87.57
62632;BME280;48703;51.248;-0.546;2023-02-10T01:10:27;103020;;;1.12;88.66
62632;BME280;48703;51.248;-0.546;2023-02-10T01:13:30;103018;;;1.08;88.36
62632;BME280;48703;51.248;-0.546;2023-02-10T01:16:31;103018;;;1.02;88.23
62632;BME280;48703;51.248;-0.546;2023-02-10T01:19:33;103014;;;1.00;88.35
62632;BME280;48703;51.248;-0.546;2023-02-10T01:22:35;103015;;;0.92;88.00
62632;BME280;48703;51.248;-0.546;2023-02-10T01:25:37;103017;;;0.86;88.24
62632;BME280;48703;51.248;-0.546;2023-02-10T01:28:38;103015;;;0.86;88.81
62632;BME280;48703;51.248;-0.546;2023-02-10T01:31:40;103012;;;0.81;88.24
62632;BME280;48703;51.248;-0.546;2023-02-10T01:34:42;103013;;;0.75;88.32
62632;BME280;48703;51.248;-0.546;2023-02-10T01:37:44;103013;;;0.70;88.59
62632;BME280;48703;51.248;-0.546;2023-02-10T01:40:47;103013;;;0.70;88.59
62632;BME280;48703;51.248;-0.546;2023-02-10T01:43:56;103016;;;0.67;88.67
62632;BME280;48703;51.248;-0.546;2023-02-10T01:46:50;103019;;;0.64;88.69
62632;BME280;48703;51.248;-0.546;2023-02-10T01:49:52;103016;;;0.60;88.54
62632;BME280;48703;51.248;-0.546;2023-02-10T01:52:54;103013;;;0.56;88.50
62632;BME280;48703;51.248;-0.546;2023-02-10T01:55:56;103014;;;0.54;89.34
62632;BME280;48703;51.248;-0.546;2023-02-10T01:58:58;103015;;;0.58;88.80
62632;BME280;48703;51.248;-0.546;2023-02-10T02:02:00;103012;;;0.54;88.90
62632;BME280;48703;51.248;-0.546;2023-02-10T02:05:03;103015;;;0.47;88.77
62632;BME280;48703;51.248;-0.546;2023-02-10T02:08:04;103017;;;0.43;89.14
62632;BME280;48703;51.248;-0.546;2023-02-10T02:11:10;103018;;;0.32;88.74
62632;BME280;48703;51.248;-0.546;2023-02-10T02:14:10;103021;;;0.30;89.00
62632;BME280;48703;51.248;-0.546;2023-02-10T02:17:11;103023;;;0.26;89.20
62632;BME280;48703;51.248;-0.546;2023-02-10T02:20:19;103019;;;0.22;89.55
62632;BME280;48703;51.248;-0.546;2023-02-10T02:23:17;103019;;;0.22;89.55
62632;BME280;48703;51.248;-0.546;2023-02-10T02:26:33;103018;;;0.21;89.77
62632;BME280;48703;51.248;-0.546;2023-02-10T02:29:24;103023;;;0.12;88.96
62632;BME280;48703;51.248;-0.546;2023-02-10T02:32:19;103033;;;0.04;89.23
62632;BME280;48703;51.248;-0.546;2023-02-10T02:35:23;103029;;;0.05;89.54
62632;BME280;48703;51.248;-0.546;2023-02-10T02:38:22;103036;;;0.03;89.64
62632;BME280;48703;51.248;-0.546;2023-02-10T02:41:24;103039;;;0.05;89.64
62632;BME280;48703;51.248;-0.546;2023-02-10T02:44:26;103032;;;0.08;89.87
62632;BME280;48703;51.248;-0.546;2023-02-10T02:47:32;103037;;;0.08;89.74
62632;BME280;48703;51.248;-0.546;2023-02-10T02:50:32;103044;;;0.10;89.69
62632;BME280;48703;51.248;-0.546;2023-02-10T02:53:35;103044;;;0.06;88.97
62632;BME280;48703;51.248;-0.546;2023-02-10T02:56:35;103040;;;0.10;88.68
62632;BME280;48703;51.248;-0.546;2023-02-10T02:59:36;103038;;;0.11;89.25
62632;BME280;48703;51.248;-0.546;2023-02-10T03:02:38;103041;;;0.11;88.55
62632;BME280;48703;51.248;-0.546;2023-02-10T03:05:40;103040;;;0.08;88.92
62632;BME280;48703;51.248;-0.546;2023-02-10T03:08:42;103030;;;0.10;89.15
62632;BME280;48703;51.248;-0.546;2023-02-10T03:11:44;103023;;;0.10;89.22
62632;BME280;48703;51.248;-0.546;2023-02-10T03:14:46;103017;;;0.10;89.20
62632;BME280;48703;51.248;-0.546;2023-02-10T03:17:47;103018;;;0.10;89.49
62632;BME280;48703;51.248;-0.546;2023-02-10T03:20:49;103018;;;0.06;89.79
62632;BME280;48703;51.248;-0.546;2023-02-10T03:23:51;103019;;;0.04;89.56
62632;BME280;48703;51.248;-0.546;2023-02-10T03:26:53;103026;;;0.01;89.80
62632;BME280;48703;51.248;-0.546;2023-02-10T03:29:55;103024;;;-0.01;89.80
62632;BME280;48703;51.248;-0.546;2023-02-10T03:32:57;103023;;;0.01;89.34
62632;BME280;48703;51.248;-0.546;2023-02-10T03:35:59;103018;;;-0.01;89.04
62632;BME280;48703;51.248;-0.546;2023-02-10T03:39:01;103015;;;-0.03;88.95
62632;BME280;48703;51.248;-0.546;2023-02-10T03:42:03;103015;;;-0.04;88.87
62632;BME280;48703;51.248;-0.546;2023-02-10T03:45:05;103019;;;-0.08;89.43
62632;BME280;48703;51.248;-0.546;2023-02-10T03:48:07;103020;;;-0.10;89.35
62632;BME280;48703;51.248;-0.546;2023-02-10T03:51:09;103009;;;-0.09;88.93
62632;BME280;48703;51.248;-0.546;2023-02-10T03:54:10;103004;;;-0.08;89.39
62632;BME280;48703;51.248;-0.546;2023-02-10T03:57:12;102996;;;-0.07;89.01
62632;BME280;48703;51.248;-0.546;2023-02-10T04:00:14;102996;;;-0.10;89.96
62632;BME280;48703;51.248;-0.546;2023-02-10T04:03:16;102999;;;-0.16;90.42
62632;BME280;48703;51.248;-0.546;2023-02-10T04:06:18;102994;;;-0.17;89.96
62632;BME280;48703;51.248;-0.546;2023-02-10T04:09:20;103000;;;-0.18;90.44
62632;BME280;48703;51.248;-0.546;2023-02-10T04:12:22;103001;;;-0.20;90.11
62632;BME280;48703;51.248;-0.546;2023-02-10T04:15:24;103002;;;-0.21;90.20
62632;BME280;48703;51.248;-0.546;2023-02-10T04:18:26;102994;;;-0.22;89.51
62632;BME280;48703;51.248;-0.546;2023-02-10T04:21:28;102990;;;-0.23;89.83
62632;BME280;48703;51.248;-0.546;2023-02-10T04:24:30;102992;;;-0.24;89.96
62632;BME280;48703;51.248;-0.546;2023-02-10T04:27:32;102989;;;-0.23;89.70
62632;BME280;48703;51.248;-0.546;2023-02-10T04:30:33;102984;;;-0.24;89.83
62632;BME280;48703;51.248;-0.546;2023-02-10T04:33:36;102981;;;-0.21;89.80
62632;BME280;48703;51.248;-0.546;2023-02-10T04:36:37;102997;;;-0.22;90.11
62632;BME280;48703;51.248;-0.546;2023-02-10T04:39:39;103004;;;-0.27;90.13
62632;BME280;48703;51.248;-0.546;2023-02-10T04:42:41;103009;;;-0.29;90.37
62632;BME280;48703;51.248;-0.546;2023-02-10T04:45:43;103008;;;-0.30;89.94
62632;BME280;48703;51.248;-0.546;2023-02-10T04:48:45;103006;;;-0.31;89.71
62632;BME280;48703;51.248;-0.546;2023-02-10T04:51:47;103008;;;-0.32;89.85
62632;BME280;48703;51.248;-0.546;2023-02-10T04:54:49;103016;;;-0.30;89.88
62632;BME280;48703;51.248;-0.546;2023-02-10T04:57:51;103020;;;-0.28;89.89
62632;BME280;48703;51.248;-0.546;2023-02-10T05:00:54;103023;;;-0.30;90.04
62632;BME280;48703;51.248;-0.546;2023-02-10T05:03:55;103015;;;-0.32;89.89
62632;BME280;48703;51.248;-0.546;2023-02-10T05:06:57;103005;;;-0.30;90.00
62632;BME280;48703;51.248;-0.546;2023-02-10T05:09:58;103004;;;-0.29;90.07
62632;BME280;48703;51.248;-0.546;2023-02-10T05:13:00;103001;;;-0.30;89.94
62632;BME280;48703;51.248;-0.546;2023-02-10T05:16:03;103004;;;-0.32;89.83
62632;BME280;48703;51.248;-0.546;2023-02-10T05:19:04;103009;;;-0.31;90.00
62632;BME280;48703;51.248;-0.546;2023-02-10T05:22:06;103012;;;-0.34;89.77
62632;BME280;48703;51.248;-0.546;2023-02-10T05:25:08;103004;;;-0.36;89.50
62632;BME280;48703;51.248;-0.546;2023-02-10T05:28:10;103002;;;-0.37;89.72
62632;BME280;48703;51.248;-0.546;2023-02-10T05:31:12;103011;;;-0.44;90.80
62632;BME280;48703;51.248;-0.546;2023-02-10T05:34:14;103007;;;-0.43;90.12
62632;BME280;48703;51.248;-0.546;2023-02-10T05:37:16;103002;;;-0.39;90.26
62632;BME280;48703;51.248;-0.546;2023-02-10T05:40:18;102996;;;-0.37;89.87
62632;BME280;48703;51.248;-0.546;2023-02-10T05:43:20;102996;;;-0.34;90.21
62632;BME280;48703;51.248;-0.546;2023-02-10T05:46:21;102997;;;-0.31;91.10
62632;BME280;48703;51.248;-0.546;2023-02-10T05:49:23;102999;;;-0.32;90.66
62632;BME280;48703;51.248;-0.546;2023-02-10T05:52:25;103005;;;-0.30;90.33
62632;BME280;48703;51.248;-0.546;2023-02-10T05:55:27;103005;;;-0.28;90.33
62632;BME280;48703;51.248;-0.546;2023-02-10T05:58:29;103003;;;-0.29;90.73
62632;BME280;48703;51.248;-0.546;2023-02-10T06:01:31;103001;;;-0.27;90.40
62632;BME280;48703;51.248;-0.546;2023-02-10T06:04:33;102997;;;-0.27;90.39
62632;BME280;48703;51.248;-0.546;2023-02-10T06:07:35;103000;;;-0.27;90.74
62632;BME280;48703;51.248;-0.546;2023-02-10T06:10:37;103006;;;-0.30;90.63
62632;BME280;48703;51.248;-0.546;2023-02-10T06:13:39;103011;;;-0.30;90.84
62632;BME280;48703;51.248;-0.546;2023-02-10T06:16:41;103010;;;-0.33;90.37
62632;BME280;48703;51.248;-0.546;2023-02-10T06:19:43;103012;;;-0.34;90.31
62632;BME280;48703;51.248;-0.546;2023-02-10T06:22:44;103015;;;-0.35;90.24
62632;BME280;48703;51.248;-0.546;2023-02-10T06:25:46;103015;;;-0.36;90.56
62632;BME280;48703;51.248;-0.546;2023-02-10T06:28:48;103017;;;-0.39;90.41
62632;BME280;48703;51.248;-0.546;2023-02-10T06:31:50;103017;;;-0.43;90.39
62632;BME280;48703;51.248;-0.546;2023-02-10T06:34:52;103016;;;-0.48;91.19
62632;BME280;48703;51.248;-0.546;2023-02-10T06:37:54;103021;;;-0.46;92.35
62632;BME280;48703;51.248;-0.546;2023-02-10T06:40:56;103023;;;-0.40;91.60
62632;BME280;48703;51.248;-0.546;2023-02-10T06:43:58;103017;;;-0.38;91.48
62632;BME280;48703;51.248;-0.546;2023-02-10T06:47:00;103020;;;-0.38;90.96
62632;BME280;48703;51.248;-0.546;2023-02-10T06:50:02;103019;;;-0.38;91.06
62632;BME280;48703;51.248;-0.546;2023-02-10T06:53:04;103018;;;-0.37;91.40
62632;BME280;48703;51.248;-0.546;2023-02-10T06:56:06;103011;;;-0.29;92.26
62632;BME280;48703;51.248;-0.546;2023-02-10T06:59:07;103015;;;-0.23;92.26
62632;BME280;48703;51.248;-0.546;2023-02-10T07:02:10;103018;;;-0.19;92.13
62632;BME280;48703;51.248;-0.546;2023-02-10T07:05:11;103017;;;-0.14;92.56
62632;BME280;48703;51.248;-0.546;2023-02-10T07:08:13;103028;;;-0.10;92.89
62632;BME280;48703;51.248;-0.546;2023-02-10T07:11:15;103031;;;-0.07;92.90
62632;BME280;48703;51.248;-0.546;2023-02-10T07:14:17;103037;;;-0.02;93.04
62632;BME280;48703;51.248;-0.546;2023-02-10T07:17:19;103034;;;-0.00;92.89
62632;BME280;48703;51.248;-0.546;2023-02-10T07:20:21;103039;;;0.03;93.65
62632;BME280;48703;51.248;-0.546;2023-02-10T07:23:23;103044;;;0.05;93.24
62632;BME280;48703;51.248;-0.546;2023-02-10T07:26:25;103049;;;0.06;93.47
62632;BME280;48703;51.248;-0.546;2023-02-10T07:29:27;103050;;;0.06;93.54
62632;BME280;48703;51.248;-0.546;2023-02-10T07:32:29;103057;;;0.08;93.55
62632;BME280;48703;51.248;-0.546;2023-02-10T07:35:31;103057;;;0.11;93.69
62632;BME280;48703;51.248;-0.546;2023-02-10T07:38:33;103052;;;0.14;93.47
62632;BME280;48703;51.248;-0.546;2023-02-10T07:41:34;103051;;;0.13;92.82
62632;BME280;48703;51.248;-0.546;2023-02-10T07:44:36;103050;;;0.14;92.54
62632;BME280;48703;51.248;-0.546;2023-02-10T07:47:38;103044;;;0.14;92.28
62632;BME280;48703;51.248;-0.546;2023-02-10T07:50:40;103040;;;0.15;92.37
62632;BME280;48703;51.248;-0.546;2023-02-10T07:53:42;103036;;;0.19;92.58
62632;BME280;48703;51.248;-0.546;2023-02-10T07:56:44;103037;;;0.24;93.11
62632;BME280;48703;51.248;-0.546;2023-02-10T07:59:46;103038;;;0.26;92.80
62632;BME280;48703;51.248;-0.546;2023-02-10T08:02:48;103044;;;0.29;93.17
62632;BME280;48703;51.248;-0.546;2023-02-10T08:05:50;103053;;;0.34;94.46
62632;BME280;48703;51.248;-0.546;2023-02-10T08:08:52;103058;;;0.38;94.45
62632;BME280;48703;51.248;-0.546;2023-02-10T08:11:54;103061;;;0.45;94.74
62632;BME280;48703;51.248;-0.546;2023-02-10T08:14:56;103056;;;0.45;93.38
62632;BME280;48703;51.248;-0.546;2023-02-10T08:17:58;103052;;;0.45;92.84
62632;BME280;48703;51.248;-0.546;2023-02-10T08:21:00;103053;;;0.48;93.24
62632;BME280;48703;51.248;-0.546;2023-02-10T08:24:01;103058;;;0.50;93.19
62632;BME280;48703;51.248;-0.546;2023-02-10T08:27:03;103065;;;0.56;93.51
62632;BME280;48703;51.248;-0.546;2023-02-10T08:30:05;103065;;;0.64;93.91
62632;BME280;48703;51.248;-0.546;2023-02-10T08:33:07;103066;;;0.71;94.25
62632;BME280;48703;51.248;-0.546;2023-02-10T08:36:10;103065;;;0.78;94.02
62632;BME280;48703;51.248;-0.546;2023-02-10T08:39:11;103064;;;0.86;94.23
62632;BME280;48703;51.248;-0.546;2023-02-10T08:42:13;103063;;;0.96;94.32
62632;BME280;48703;51.248;-0.546;2023-02-10T08:45:15;103075;;;1.05;94.51
62632;BME280;48703;51.248;-0.546;2023-02-10T08:48:17;103078;;;1.17;94.75
62632;BME280;48703;51.248;-0.546;2023-02-10T08:51:19;103073;;;1.27;94.36
62632;BME280;48703;51.248;-0.546;2023-02-10T08:54:20;103076;;;1.36;94.12
62632;BME280;48703;51.248;-0.546;2023-02-10T08:57:22;103079;;;1.48;94.18
62632;BME280;48703;51.248;-0.546;2023-02-10T09:00:24;103085;;;1.58;94.03
62632;BME280;48703;51.248;-0.546;2023-02-10T09:03:26;103090;;;1.67;93.81
62632;BME280;48703;51.248;-0.546;2023-02-10T09:06:29;103083;;;1.76;93.49
62632;BME280;48703;51.248;-0.546;2023-02-10T09:09:30;103080;;;1.86;93.26
62632;BME280;48703;51.248;-0.546;2023-02-10T09:12:32;103082;;;1.94;93.05
62632;BME280;48703;51.248;-0.546;2023-02-10T09:15:36;103083;;;2.00;92.85
62632;BME280;48703;51.248;-0.546;2023-02-10T09:18:36;103086;;;2.08;92.84
62632;BME280;48703;51.248;-0.546;2023-02-10T09:21:38;103093;;;2.15;92.78
62632;BME280;48703;51.248;-0.546;2023-02-10T09:24:40;103093;;;2.21;92.69
62632;BME280;48703;51.248;-0.546;2023-02-10T09:27:42;103100;;;2.26;92.42
62632;BME280;48703;51.248;-0.546;2023-02-10T09:30:43;103107;;;2.31;91.86
62632;BME280;48703;51.248;-0.546;2023-02-10T09:33:45;103114;;;2.35;91.61
62632;BME280;48703;51.248;-0.546;2023-02-10T09:36:47;103118;;;2.39;91.39
62632;BME280;48703;51.248;-0.546;2023-02-10T09:39:49;103114;;;2.41;91.23
62632;BME280;48703;51.248;-0.546;2023-02-10T09:42:55;103107;;;2.44;91.14
62632;BME280;48703;51.248;-0.546;2023-02-10T09:45:55;103106;;;2.44;91.01
62632;BME280;48703;51.248;-0.546;2023-02-10T09:48:58;103112;;;2.46;90.88
62632;BME280;48703;51.248;-0.546;2023-02-10T09:51:59;103118;;;2.46;90.65
62632;BME280;48703;51.248;-0.546;2023-02-10T09:54:59;103119;;;2.47;90.36
62632;BME280;48703;51.248;-0.546;2023-02-10T09:58:02;103113;;;2.48;90.15
62632;BME280;48703;51.248;-0.546;2023-02-10T10:01:03;103109;;;2.50;90.06
62632;BME280;48703;51.248;-0.546;2023-02-10T10:04:05;103105;;;2.50;90.21
62632;BME280;48703;51.248;-0.546;2023-02-10T10:07:10;103110;;;2.52;90.03
62632;BME280;48703;51.248;-0.546;2023-02-10T10:10:11;103109;;;2.54;89.78
62632;BME280;48703;51.248;-0.546;2023-02-10T10:13:12;103107;;;2.57;89.76
62632;BME280;48703;51.248;-0.546;2023-02-10T10:16:15;103101;;;2.61;89.50
62632;BME280;48703;51.248;-0.546;2023-02-10T10:19:17;103094;;;2.65;89.31
62632;BME280;48703;51.248;-0.546;2023-02-10T10:22:21;103096;;;2.70;88.99
62632;BME280;48703;51.248;-0.546;2023-02-10T10:25:22;103104;;;2.77;88.83
62632;BME280;48703;51.248;-0.546;2023-02-10T10:28:23;103108;;;2.83;88.75
62632;BME280;48703;51.248;-0.546;2023-02-10T10:31:23;103115;;;2.88;88.36
62632;BME280;48703;51.248;-0.546;2023-02-10T10:34:25;103120;;;2.92;87.90
62632;BME280;48703;51.248;-0.546;2023-02-10T10:37:26;103118;;;2.96;88.25
62632;BME280;48703;51.248;-0.546;2023-02-10T10:40:29;103121;;;2.99;88.01
62632;BME280;48703;51.248;-0.546;2023-02-10T10:43:30;103122;;;3.04;88.17
62632;BME280;48703;51.248;-0.546;2023-02-10T10:46:34;103118;;;3.09;88.24
62632;BME280;48703;51.248;-0.546;2023-02-10T10:49:34;103123;;;3.14;87.99
62632;BME280;48703;51.248;-0.546;2023-02-10T10:52:35;103127;;;3.20;87.82
62632;BME280;48703;51.248;-0.546;2023-02-10T10:55:38;103123;;;3.26;87.83
62632;BME280;48703;51.248;-0.546;2023-02-10T10:58:40;103123;;;3.34;87.93
62632;BME280;48703;51.248;-0.546;2023-02-10T11:01:42;103121;;;3.43;87.90
62632;BME280;48703;51.248;-0.546;2023-02-10T11:04:43;103119;;;3.54;87.57
62632;BME280;48703;51.248;-0.546;2023-02-10T11:07:46;103124;;;3.63;86.95
62632;BME280;48703;51.248;-0.546;2023-02-10T11:10:48;103127;;;3.72;86.01
62632;BME280;48703;51.248;-0.546;2023-02-10T11:13:50;103117;;;3.79;85.96
62632;BME280;48703;51.248;-0.546;2023-02-10T11:16:51;103117;;;3.87;85.91
62632;BME280;48703;51.248;-0.546;2023-02-10T11:19:53;103115;;;3.94;85.83
62632;BME280;48703;51.248;-0.546;2023-02-10T11:22:55;103112;;;4.01;85.54
62632;BME280;48703;51.248;-0.546;2023-02-10T11:25:58;103123;;;4.10;85.01
62632;BME280;48703;51.248;-0.546;2023-02-10T11:29:07;103121;;;4.20;84.35
62632;BME280;48703;51.248;-0.546;2023-02-10T11:32:00;103105;;;4.27;84.25
62632;BME280;48703;51.248;-0.546;2023-02-10T11:35:03;103095;;;4.35;84.27
62632;BME280;48703;51.248;-0.546;2023-02-10T11:37:10;103095;;;4.38;83.97
62632;BME280;48703;51.248;-0.546;2023-02-10T11:40:16;103100;;;4.47;83.86
62632;BME280;48703;51.248;-0.546;2023-02-10T11:43:10;103108;;;4.56;82.93
62632;BME280;48703;51.248;-0.546;2023-02-10T11:46:19;103109;;;4.61;83.15
62632;BME280;48703;51.248;-0.546;2023-02-10T11:49:17;103098;;;4.67;83.45
62632;BME280;48703;51.248;-0.546;2023-02-10T11:52:13;103096;;;4.71;82.64
62632;BME280;48703;51.248;-0.546;2023-02-10T11:55:15;103087;;;4.81;81.83
62632;BME280;48703;51.248;-0.546;2023-02-10T11:58:26;103078;;;4.88;82.07
62632;BME280;48703;51.248;-0.546;2023-02-10T12:01:20;103072;;;4.95;82.36
62632;BME280;48703;51.248;-0.546;2023-02-10T12:04:29;103072;;;5.04;79.74
62632;BME280;48703;51.248;-0.546;2023-02-10T12:07:27;103069;;;5.13;80.77
62632;BME280;48703;51.248;-0.546;2023-02-10T12:10:26;103070;;;5.22;79.97
62632;BME280;48703;51.248;-0.546;2023-02-10T12:13:28;103070;;;5.33;78.16
62632;BME280;48703;51.248;-0.546;2023-02-10T12:16:30;103075;;;5.44;78.33
62632;BME280;48703;51.248;-0.546;2023-02-10T12:19:32;103069;;;5.52;78.58
62632;BME280;48703;51.248;-0.546;2023-02-10T12:22:35;103051;;;5.57;78.21
62632;BME280;48703;51.248;-0.546;2023-02-10T12:25:36;103053;;;5.67;77.91
62632;BME280;48703;51.248;-0.546;2023-02-10T12:28:39;103047;;;5.78;77.12
62632;BME280;48703;51.248;-0.546;2023-02-10T12:31:41;103046;;;5.87;77.26
62632;BME280;48703;51.248;-0.546;2023-02-10T12:35:12;103039;;;5.95;77.70
62632;BME280;48703;51.248;-0.546;2023-02-10T12:37:44;103040;;;6.05;77.58
62632;BME280;48703;51.248;-0.546;2023-02-10T12:40:48;103039;;;6.12;78.14
62632;BME280;48703;51.248;-0.546;2023-02-10T12:43:53;103038;;;6.21;77.00
62632;BME280;48703;51.248;-0.546;2023-02-10T12:46:51;103039;;;6.28;77.62
62632;BME280;48703;51.248;-0.546;2023-02-10T12:49:53;103031;;;6.32;77.21
62632;BME280;48703;51.248;-0.546;2023-02-10T12:52:54;103029;;;6.33;77.32
62632;BME280;48703;51.248;-0.546;2023-02-10T12:55:55;103026;;;6.38;76.98
62632;BME280;48703;51.248;-0.546;2023-02-10T12:58:57;103027;;;6.42;75.67
62632;BME280;48703;51.248;-0.546;2023-02-10T13:01:58;103024;;;6.49;75.08
62632;BME280;48703;51.248;-0.546;2023-02-10T13:05:01;103016;;;6.55;76.24
62632;BME280;48703;51.248;-0.546;2023-02-10T13:08:01;103016;;;6.60;76.17
62632;BME280;48703;51.248;-0.546;2023-02-10T13:11:05;103003;;;6.65;75.17
62632;BME280;48703;51.248;-0.546;2023-02-10T13:14:08;102991;;;6.71;76.78
62632;BME280;48703;51.248;-0.546;2023-02-10T13:17:08;102983;;;6.76;77.11
62632;BME280;48703;51.248;-0.546;2023-02-10T13:20:15;102976;;;6.81;76.67
62632;BME280;48703;51.248;-0.546;2023-02-10T13:23:14;102979;;;6.87;75.47
62632;BME280;48703;51.248;-0.546;2023-02-10T13:26:17;102985;;;6.92;74.01
62632;BME280;48703;51.248;-0.546;2023-02-10T13:29:16;102992;;;6.97;75.73
62632;BME280;48703;51.248;-0.546;2023-02-10T13:32:19;102985;;;7.03;76.00
62632;BME280;48703;51.248;-0.546;2023-02-10T13:35:20;102987;;;7.09;76.32
62632;BME280;48703;51.248;-0.546;2023-02-10T13:38:20;102988;;;7.13;74.20
62632;BME280;48703;51.248;-0.546;2023-02-10T13:41:23;102982;;;7.20;75.36
62632;BME280;48703;51.248;-0.546;2023-02-10T13:44:25;102982;;;7.22;75.42
62632;BME280;48703;51.248;-0.546;2023-02-10T13:47:27;102979;;;7.23;75.46
62632;BME280;48703;51.248;-0.546;2023-02-10T13:50:28;102981;;;7.21;74.70
62632;BME280;48703;51.248;-0.546;2023-02-10T13:53:39;102976;;;7.21;75.49
62632;BME280;48703;51.248;-0.546;2023-02-10T13:56:32;102969;;;7.21;75.36
62632;BME280;48703;51.248;-0.546;2023-02-10T13:59:35;102966;;;7.22;75.37
62632;BME280;48703;51.248;-0.546;2023-02-10T14:02:36;102961;;;7.23;76.30
62632;BME280;48703;51.248;-0.546;2023-02-10T14:05:39;102958;;;7.22;76.36
62632;BME280;48703;51.248;-0.546;2023-02-10T14:08:40;102955;;;7.22;76.24
62632;BME280;48703;51.248;-0.546;2023-02-10T14:11:42;102951;;;7.23;76.38
62632;BME280;48703;51.248;-0.546;2023-02-10T14:14:43;102952;;;7.26;76.88
62632;BME280;48703;51.248;-0.546;2023-02-10T14:17:52;102948;;;7.28;76.67
62632;BME280;48703;51.248;-0.546;2023-02-10T14:20:54;102951;;;7.33;76.43
62632;BME280;48703;51.248;-0.546;2023-02-10T14:23:50;102947;;;7.35;76.30
62632;BME280;48703;51.248;-0.546;2023-02-10T14:26:51;102955;;;7.38;74.94
62632;BME280;48703;51.248;-0.546;2023-02-10T14:29:54;102952;;;7.43;74.38
62632;BME280;48703;51.248;-0.546;2023-02-10T14:32:55;102949;;;7.45;75.07
62632;BME280;48703;51.248;-0.546;2023-02-10T14:35:58;102952;;;7.48;75.42
62632;BME280;48703;51.248;-0.546;2023-02-10T14:38:59;102961;;;7.50;74.84
62632;BME280;48703;51.248;-0.546;2023-02-10T14:42:03;102965;;;7.53;75.28
62632;BME280;48703;51.248;-0.546;2023-02-10T14:45:03;102966;;;7.57;76.10
62632;BME280;48703;51.248;-0.546;2023-02-10T14:48:05;102973;;;7.60;74.17
62632;BME280;48703;51.248;-0.546;2023-02-10T14:51:16;102981;;;7.64;74.75
62632;BME280;48703;51.248;-0.546;2023-02-10T14:54:09;102980;;;7.66;73.67
62632;BME280;48703;51.248;-0.546;2023-02-10T14:57:11;102978;;;7.69;74.13
62632;BME280;48703;51.248;-0.546;2023-02-10T15:00:13;102983;;;7.72;74.39
62632;BME280;48703;51.248;-0.546;2023-02-10T15:03:14;102984;;;7.75;73.90
62632;BME280;48703;51.248;-0.546;2023-02-10T15:06:17;102984;;;7.77;75.14
62632;BME280;48703;51.248;-0.546;2023-02-10T15:09:18;102987;;;7.79;74.12
62632;BME280;48703;51.248;-0.546;2023-02-10T15:12:20;102991;;;7.80;74.97
62632;BME280;48703;51.248;-0.546;2023-02-10T15:15:24;102988;;;7.80;75.03
62632;BME280;48703;51.248;-0.546;2023-02-10T15:18:25;102986;;;7.79;75.12
62632;BME280;48703;51.248;-0.546;2023-02-10T15:21:27;102988;;;7.76;75.06
62632;BME280;48703;51.248;-0.546;2023-02-10T15:24:28;102990;;;7.77;75.48
62632;BME280;48703;51.248;-0.546;2023-02-10T15:27:30;102989;;;7.79;74.70
62632;BME280;48703;51.248;-0.546;2023-02-10T15:30:31;102991;;;7.77;75.07
62632;BME280;48703;51.248;-0.546;2023-02-10T15:33:35;102994;;;7.76;74.99
62632;BME280;48703;51.248;-0.546;2023-02-10T15:36:46;102995;;;7.76;75.41
62632;BME280;48703;51.248;-0.546;2023-02-10T15:39:37;102995;;;7.76;75.42
62632;BME280;48703;51.248;-0.546;2023-02-10T15:42:39;102997;;;7.75;75.14
62632;BME280;48703;51.248;-0.546;2023-02-10T15:45:41;102999;;;7.74;74.62
62632;BME280;48703;51.248;-0.546;2023-02-10T15:48:43;103001;;;7.74;75.07
62632;BME280;48703;51.248;-0.546;2023-02-10T15:51:46;103000;;;7.74;75.01
62632;BME280;48703;51.248;-0.546;2023-02-10T15:54:47;102999;;;7.74;75.82
62632;BME280;48703;51.248;-0.546;2023-02-10T15:57:49;102999;;;7.73;75.17
62632;BME280;48703;51.248;-0.546;2023-02-10T16:00:51;102998;;;7.73;75.50
62632;BME280;48703;51.248;-0.546;2023-02-10T16:03:53;102996;;;7.72;76.03
62632;BME280;48703;51.248;-0.546;2023-02-10T16:06:55;102995;;;7.72;76.46
62632;BME280;48703;51.248;-0.546;2023-02-10T16:09:56;102991;;;7.70;76.58
62632;BME280;48703;51.248;-0.546;2023-02-10T16:12:58;102985;;;7.68;76.46
62632;BME280;48703;51.248;-0.546;2023-02-10T16:16:00;102984;;;7.66;75.70
62632;BME280;48703;51.248;-0.546;2023-02-10T16:19:02;102986;;;7.65;76.59
62632;BME280;48703;51.248;-0.546;2023-02-10T16:22:04;102985;;;7.63;76.85
62632;BME280;48703;51.248;-0.546;2023-02-10T16:25:06;102988;;;7.62;76.88